sensor_id;sensor_type;location;lat;lon;timestamp;pressure;altitude;pressure_sealevel;temperature;humidity
69027;BME280;56080;47.594;19.116;2023-01-27T00:00:48;100314;;;1.75;82.54
69027;BME280;56080;47.594;19.116;2023-01-27T00:10:58;100302;;;1.80;82.78
69027;BME280;56080;47.594;19.116;2023-01-27T00:20:58;100300;;;1.73;83.69
69027;BME280;56080;47.594;19.116;2023-01-27T00:30:48;100290;;;1.73;82.91
69027;BME280;56080;47.594;19.116;2023-01-27T00:40:58;100300;;;1.70;82.69
69027;BME280;56080;47.594;19.116;2023-01-27T00:50:48;100292;;;1.73;82.65
69027;BME280;56080;47.594;19.116;2023-01-27T01:00:51;100294;;;1.78;81.74
69027;BME280;56080;47.594;19.116;2023-01-27T01:10:49;100293;;;1.53;81.58
69027;BME280;56080;47.594;19.116;2023-01-27T01:20:49;100281;;;1.54;81.42
69027;BME280;56080;47.594;19.116;2023-01-27T01:30:50;100279;;;1.53;80.77
69027;BME280;56080;47.594;19.116;2023-01-27T01:40:50;100272;;;1.28;81.17
69027;BME280;56080;47.594;19.116;2023-01-27T01:50:51;100270;;;1.53;80.12
69027;BME280;56080;47.594;19.116;2023-01-27T02:00:50;100270;;;1.52;78.78
69027;BME280;56080;47.594;19.116;2023-01-27T02:10:53;100255;;;1.40;77.99
69027;BME280;56080;47.594;19.116;2023-01-27T02:20:51;100247;;;1.35;77.19
69027;BME280;56080;47.594;19.116;2023-01-27T02:30:51;100242;;;1.27;76.51
69027;BME280;56080;47.594;19.116;2023-01-27T02:40:52;100225;;;1.04;76.20
69027;BME280;56080;47.594;19.116;2023-01-27T02:50:52;100207;;;1.10;75.92
69027;BME280;56080;47.594;19.116;2023-01-27T03:00:52;100205;;;0.96;75.80
69027;BME280;56080;47.594;19.116;2023-01-27T03:10:52;100191;;;0.93;75.80
69027;BME280;56080;47.594;19.116;2023-01-27T03:20:58;100185;;;0.67;76.49
69027;BME280;56080;47.594;19.116;2023-01-27T03:31:00;100183;;;0.70;76.40
69027;BME280;56080;47.594;19.116;2023-01-27T03:41:02;100176;;;0.56;76.63
69027;BME280;56080;47.594;19.116;2023-01-27T03:50:56;100174;;;0.70;76.31
69027;BME280;56080;47.594;19.116;2023-01-27T04:00:53;100158;;;0.56;76.26
69027;BME280;56080;47.594;19.116;2023-01-27T04:11:03;100155;;;0.62;76.12
69027;BME280;56080;47.594;19.116;2023-01-27T04:20:53;100153;;;0.79;76.19
69027;BME280;56080;47.594;19.116;2023-01-27T04:30:53;100151;;;0.57;77.54
69027;BME280;56080;47.594;19.116;2023-01-27T04:40:53;100155;;;0.31;77.68
69027;BME280;56080;47.594;19.116;2023-01-27T04:50:53;100160;;;0.18;78.26
69027;BME280;56080;47.594;19.116;2023-01-27T05:00:56;100170;;;0.14;80.61
69027;BME280;56080;47.594;19.116;2023-01-27T05:20:57;100171;;;-0.06;81.73
69027;BME280;56080;47.594;19.116;2023-01-27T05:40:55;100164;;;-0.18;82.85
69027;BME280;56080;47.594;19.116;2023-01-27T05:50:55;100166;;;-0.09;82.72
69027;BME280;56080;47.594;19.116;2023-01-27T06:00:54;100164;;;-0.22;83.54
69027;BME280;56080;47.594;19.116;2023-01-27T06:10:55;100161;;;-0.14;83.76
69027;BME280;56080;47.594;19.116;2023-01-27T06:20:58;100161;;;-0.04;82.69
69027;BME280;56080;47.594;19.116;2023-01-27T06:30:55;100156;;;0.06;82.64
69027;BME280;56080;47.594;19.116;2023-01-27T06:40:56;100171;;;0.04;81.93
69027;BME280;56080;47.594;19.116;2023-01-27T06:50:55;100167;;;0.20;82.49
69027;BME280;56080;47.594;19.116;2023-01-27T07:00:55;100175;;;0.47;79.56
69027;BME280;56080;47.594;19.116;2023-01-27T07:10:55;100162;;;0.68;76.43
69027;BME280;56080;47.594;19.116;2023-01-27T07:20:55;100172;;;0.60;73.17
69027;BME280;56080;47.594;19.116;2023-01-27T07:30:59;100188;;;1.04;72.75
69027;BME280;56080;47.594;19.116;2023-01-27T07:40:57;100184;;;0.99;71.44
69027;BME280;56080;47.594;19.116;2023-01-27T07:51:00;100166;;;0.97;70.21
69027;BME280;56080;47.594;19.116;2023-01-27T08:00:56;100165;;;1.16;69.70
69027;BME280;56080;47.594;19.116;2023-01-27T08:11:00;100174;;;1.17;69.60
69027;BME280;56080;47.594;19.116;2023-01-27T08:20:58;100174;;;1.45;69.26
69027;BME280;56080;47.594;19.116;2023-01-27T08:31:05;100182;;;1.52;68.70
69027;BME280;56080;47.594;19.116;2023-01-27T08:40:57;100188;;;1.54;67.28
69027;BME280;56080;47.594;19.116;2023-01-27T08:50:57;100199;;;1.51;67.68
69027;BME280;56080;47.594;19.116;2023-01-27T09:00:59;100198;;;1.75;66.93
69027;BME280;56080;47.594;19.116;2023-01-27T09:10:57;100199;;;1.92;65.79
69027;BME280;56080;47.594;19.116;2023-01-27T09:21:01;100211;;;1.94;65.00
69027;BME280;56080;47.594;19.116;2023-01-27T09:30:58;100210;;;1.63;64.83
69027;BME280;56080;47.594;19.116;2023-01-27T09:41:02;100211;;;1.89;63.85
69027;BME280;56080;47.594;19.116;2023-01-27T09:51:01;100215;;;1.83;64.21
69027;BME280;56080;47.594;19.116;2023-01-27T10:31:00;100217;;;1.49;71.41
69027;BME280;56080;47.594;19.116;2023-01-27T10:51:02;100208;;;1.45;75.83
69027;BME280;56080;47.594;19.116;2023-01-27T11:01:10;100201;;;1.38;78.43
69027;BME280;56080;47.594;19.116;2023-01-27T11:11:09;100188;;;1.15;81.89
69027;BME280;56080;47.594;19.116;2023-01-27T11:21:02;100187;;;1.10;86.39
69027;BME280;56080;47.594;19.116;2023-01-27T11:31:01;100182;;;1.08;88.06
69027;BME280;56080;47.594;19.116;2023-01-27T11:41:00;100180;;;1.26;88.71
69027;BME280;56080;47.594;19.116;2023-01-27T11:51:00;100171;;;1.05;89.46
69027;BME280;56080;47.594;19.116;2023-01-27T12:01:03;100152;;;1.06;90.43
69027;BME280;56080;47.594;19.116;2023-01-27T12:21:02;100136;;;1.16;91.72
69027;BME280;56080;47.594;19.116;2023-01-27T12:31:03;100126;;;1.26;92.28
69027;BME280;56080;47.594;19.116;2023-01-27T12:41:04;100115;;;1.15;93.28
69027;BME280;56080;47.594;19.116;2023-01-27T12:51:03;100111;;;1.14;93.59
69027;BME280;56080;47.594;19.116;2023-01-27T13:01:03;100110;;;1.35;93.33
69027;BME280;56080;47.594;19.116;2023-01-27T13:11:04;100115;;;1.04;92.68
69027;BME280;56080;47.594;19.116;2023-01-27T13:21:07;100124;;;1.21;93.50
69027;BME280;56080;47.594;19.116;2023-01-27T13:31:02;100131;;;1.23;92.15
69027;BME280;56080;47.594;19.116;2023-01-27T13:41:03;100129;;;1.06;92.44
69027;BME280;56080;47.594;19.116;2023-01-27T13:51:05;100138;;;1.07;91.79
69027;BME280;56080;47.594;19.116;2023-01-27T14:01:12;100133;;;1.16;92.34
69027;BME280;56080;47.594;19.116;2023-01-27T14:11:09;100131;;;1.14;93.20
69027;BME280;56080;47.594;19.116;2023-01-27T14:31:05;100134;;;1.52;92.18
69027;BME280;56080;47.594;19.116;2023-01-27T14:51:07;100131;;;1.42;91.57
69027;BME280;56080;47.594;19.116;2023-01-27T15:31:04;100134;;;1.43;88.41
69027;BME280;56080;47.594;19.116;2023-01-27T15:51:06;100148;;;1.52;88.42
69027;BME280;56080;47.594;19.116;2023-01-27T16:01:03;100153;;;1.51;87.98
69027;BME280;56080;47.594;19.116;2023-01-27T16:21:05;100153;;;1.58;87.85
69027;BME280;56080;47.594;19.116;2023-01-27T16:31:10;100157;;;1.51;88.15
69027;BME280;56080;47.594;19.116;2023-01-27T16:41:13;100168;;;1.48;88.58
69027;BME280;56080;47.594;19.116;2023-01-27T16:51:05;100178;;;1.46;89.01
69027;BME280;56080;47.594;19.116;2023-01-27T17:01:04;100183;;;1.63;88.20
69027;BME280;56080;47.594;19.116;2023-01-27T17:11:06;100183;;;1.64;87.65
69027;BME280;56080;47.594;19.116;2023-01-27T17:21:04;100203;;;1.64;87.84
69027;BME280;56080;47.594;19.116;2023-01-27T17:31:12;100203;;;1.80;87.20
69027;BME280;56080;47.594;19.116;2023-01-27T17:41:10;100202;;;1.88;86.82
69027;BME280;56080;47.594;19.116;2023-01-27T17:51:07;100208;;;1.87;86.31
69027;BME280;56080;47.594;19.116;2023-01-27T18:01:07;100209;;;1.93;86.88
69027;BME280;56080;47.594;19.116;2023-01-27T18:11:09;100214;;;1.95;86.91
69027;BME280;56080;47.594;19.116;2023-01-27T18:31:15;100223;;;2.02;86.31
69027;BME280;56080;47.594;19.116;2023-01-27T18:41:07;100212;;;1.91;86.25
69027;BME280;56080;47.594;19.116;2023-01-27T18:51:11;100215;;;2.00;86.79
69027;BME280;56080;47.594;19.116;2023-01-27T19:01:13;100217;;;1.91;86.99
69027;BME280;56080;47.594;19.116;2023-01-27T19:11:09;100224;;;1.96;86.68
69027;BME280;56080;47.594;19.116;2023-01-27T19:21:15;100219;;;1.97;86.00
69027;BME280;56080;47.594;19.116;2023-01-27T19:31:16;100233;;;1.95;86.09
69027;BME280;56080;47.594;19.116;2023-01-27T19:41:13;100242;;;2.04;85.80
69027;BME280;56080;47.594;19.116;2023-01-27T19:51:10;100246;;;2.13;84.84
69027;BME280;56080;47.594;19.116;2023-01-27T20:01:12;100245;;;2.14;84.37
69027;BME280;56080;47.594;19.116;2023-01-27T20:11:19;100251;;;2.16;83.76
69027;BME280;56080;47.594;19.116;2023-01-27T20:21:10;100263;;;1.99;83.57
69027;BME280;56080;47.594;19.116;2023-01-27T20:31:11;100267;;;2.13;83.14
69027;BME280;56080;47.594;19.116;2023-01-27T20:41:12;100275;;;1.99;82.76
69027;BME280;56080;47.594;19.116;2023-01-27T20:51:14;100275;;;2.19;82.37
69027;BME280;56080;47.594;19.116;2023-01-27T21:01:11;100281;;;2.15;82.23
69027;BME280;56080;47.594;19.116;2023-01-27T21:11:12;100279;;;2.14;81.67
69027;BME280;56080;47.594;19.116;2023-01-27T21:21:23;100271;;;2.17;81.81
69027;BME280;56080;47.594;19.116;2023-01-27T21:31:16;100276;;;2.17;82.10
69027;BME280;56080;47.594;19.116;2023-01-27T21:41:12;100275;;;2.10;81.22
69027;BME280;56080;47.594;19.116;2023-01-27T22:01:10;100284;;;2.05;80.86
69027;BME280;56080;47.594;19.116;2023-01-27T22:11:12;100284;;;2.18;80.45
69027;BME280;56080;47.594;19.116;2023-01-27T22:21:11;100288;;;2.15;80.07
69027;BME280;56080;47.594;19.116;2023-01-27T22:31:11;100286;;;1.92;80.74
69027;BME280;56080;47.594;19.116;2023-01-27T22:41:15;100281;;;2.18;80.15
69027;BME280;56080;47.594;19.116;2023-01-27T22:51:13;100272;;;2.17;79.79
69027;BME280;56080;47.594;19.116;2023-01-27T23:01:11;100266;;;2.22;79.46
69027;BME280;56080;47.594;19.116;2023-01-27T23:11:11;100274;;;2.10;79.83
69027;BME280;56080;47.594;19.116;2023-01-27T23:21:12;100274;;;2.18;79.69
69027;BME280;56080;47.594;19.116;2023-01-27T23:31:12;100275;;;2.27;78.90
69027;BME280;56080;47.594;19.116;2023-01-27T23:41:17;100267;;;2.20;78.17
69027;BME280;56080;47.594;19.116;2023-01-27T23:51:12;100269;;;2.20;77.95
